createdAt,value
2023-04-06T00:01:35.906Z,4.07
2023-04-06T00:06:36.875Z,4.00
2023-04-06T00:11:37.755Z,3.97
2023-04-06T00:16:41.455Z,4.00
2023-04-06T00:21:42.527Z,4.15
2023-04-06T00:26:43.636Z,3.85
2023-04-06T00:31:44.579Z,4.40
2023-04-06T00:36:45.814Z,4.55
2023-04-06T00:41:55.410Z,4.37
2023-04-06T00:46:56.663Z,4.45
2023-04-06T00:51:57.663Z,4.75
2023-04-06T00:56:58.600Z,4.03
2023-04-06T01:02:01.006Z,4.40
2023-04-06T01:07:16.450Z,4.18
2023-04-06T01:12:25.142Z,4.05
2023-04-06T01:17:26.352Z,4.10
2023-04-06T01:22:27.448Z,4.28
2023-04-06T01:27:34.924Z,4.37
2023-04-06T01:33:08.696Z,4.10
2023-04-06T01:38:18.138Z,4.60
2023-04-06T01:43:19.522Z,4.23
2023-04-06T01:48:36.798Z,4.60
2023-04-06T01:53:46.457Z,4.40
2023-04-06T01:58:47.736Z,4.72
2023-04-06T02:03:50.293Z,4.30
2023-04-06T02:08:51.295Z,5.03
2023-04-06T02:13:52.818Z,4.87
2023-04-06T02:18:53.910Z,5.40
2023-04-06T02:23:54.849Z,4.70
2023-04-06T02:28:55.957Z,4.15
2023-04-06T02:33:56.864Z,4.65
2023-04-06T02:38:58.470Z,4.43
2023-04-06T02:44:03.617Z,4.53
2023-04-06T02:49:22.955Z,4.90
2023-04-06T02:54:27.271Z,4.43
2023-04-06T02:59:28.363Z,5.03
2023-04-06T03:04:36.778Z,4.75
2023-04-06T03:09:39.907Z,4.62
2023-04-06T03:14:40.878Z,4.75
2023-04-06T03:19:42.393Z,5.62
2023-04-06T03:24:44.706Z,4.90
2023-04-06T03:29:46.164Z,4.60
2023-04-06T03:34:48.763Z,5.15
2023-04-06T03:39:49.723Z,4.97
2023-04-06T03:44:54.894Z,4.85
2023-04-06T03:49:56.684Z,4.65
2023-04-06T03:54:57.738Z,4.75
2023-04-06T03:59:58.823Z,4.87
2023-04-06T04:05:01.053Z,4.87
2023-04-06T04:10:02.038Z,4.95
2023-04-06T04:15:05.184Z,4.90
2023-04-06T04:20:07.104Z,5.05
2023-04-06T04:25:11.770Z,5.85
2023-04-06T04:30:17.872Z,5.30
2023-04-06T04:35:18.899Z,4.70
2023-04-06T04:40:20.074Z,4.87
2023-04-06T04:45:40.061Z,5.35
2023-04-06T04:50:58.781Z,4.65
2023-04-06T04:56:02.272Z,5.05
2023-04-06T05:01:03.588Z,5.43
2023-04-06T05:06:08.571Z,5.35
2023-04-06T05:11:11.617Z,6.20
2023-04-06T05:16:17.770Z,6.12
2023-04-06T05:21:19.601Z,5.72
2023-04-06T05:26:29.701Z,5.40
2023-04-06T05:31:35.106Z,5.70
2023-04-06T05:36:36.065Z,5.62
2023-04-06T05:41:43.349Z,5.18
2023-04-06T05:46:44.833Z,5.40
2023-04-06T05:51:48.381Z,5.45
2023-04-06T05:56:49.302Z,5.43
2023-04-06T06:01:50.708Z,6.12
2023-04-06T06:06:55.232Z,6.90
2023-04-06T06:12:13.195Z,7.43
2023-04-06T06:17:16.068Z,6.78
2023-04-06T06:22:17.583Z,6.40
2023-04-06T06:27:20.455Z,6.12
2023-04-06T06:32:21.697Z,6.25
2023-04-06T06:37:25.135Z,6.20
2023-04-06T06:42:26.659Z,5.97
2023-04-06T06:47:37.751Z,6.15
2023-04-06T06:52:40.297Z,5.93
2023-04-06T06:57:42.498Z,6.30
2023-04-06T07:02:44.046Z,6.37
2023-04-06T07:07:45.277Z,5.55
2023-04-06T07:12:46.737Z,5.40
2023-04-06T07:17:47.912Z,5.87
2023-04-06T07:22:49.114Z,6.62
2023-04-06T07:27:50.004Z,6.90
2023-04-06T07:32:54.392Z,6.45
2023-04-06T07:37:55.940Z,6.95
2023-04-06T07:42:58.197Z,7.03
2023-04-06T07:47:59.998Z,7.03
2023-04-06T07:53:01.822Z,6.05
2023-04-06T07:58:03.181Z,7.20
2023-04-06T08:03:04.603Z,6.85
2023-04-06T08:08:06.045Z,7.18
2023-04-06T08:13:08.446Z,7.00
2023-04-06T08:18:09.535Z,7.77
2023-04-06T08:23:11.247Z,7.90
2023-04-06T08:28:12.240Z,7.45
2023-04-06T08:33:13.533Z,7.95
2023-04-06T08:38:14.545Z,7.85
2023-04-06T08:43:20.721Z,7.95
2023-04-06T08:48:22.125Z,7.93
2023-04-06T08:53:24.350Z,8.45
2023-04-06T08:58:37.754Z,7.83
2023-04-06T09:03:41.562Z,7.72
2023-04-06T09:08:43.019Z,7.45
2023-04-06T09:13:52.342Z,7.93
2023-04-06T09:18:53.279Z,7.50
2023-04-06T09:24:02.238Z,7.65
2023-04-06T09:29:03.726Z,8.43
2023-04-06T09:34:04.933Z,7.97
2023-04-06T09:39:06.456Z,8.75
2023-04-06T09:44:09.793Z,8.32
2023-04-06T09:49:12.167Z,8.43
2023-04-06T09:54:18.780Z,8.02
2023-04-06T10:01:23.845Z,8.07
2023-04-06T10:06:28.864Z,7.95
2023-04-06T10:11:30.720Z,8.13
2023-04-06T10:16:32.580Z,7.90
2023-04-06T10:21:35.847Z,7.65
2023-04-06T10:31:43.508Z,7.82
2023-04-06T10:36:44.587Z,6.87
2023-04-06T10:41:48.361Z,7.25
2023-04-06T10:47:02.921Z,7.47
2023-04-06T10:52:04.042Z,8.55
2023-04-06T10:57:05.718Z,7.72
2023-04-06T11:02:06.603Z,7.95
2023-04-06T11:07:07.812Z,8.45
2023-04-06T11:12:08.662Z,8.32
2023-04-06T11:17:09.849Z,7.57
2023-04-06T11:22:10.772Z,8.02
2023-04-06T11:27:12.247Z,7.62
2023-04-06T11:32:21.117Z,8.23
2023-04-06T11:37:27.294Z,7.85
2023-04-06T11:42:29.972Z,6.87
2023-04-06T11:47:36.757Z,7.95
2023-04-06T11:52:39.536Z,6.95
2023-04-06T11:57:41.920Z,8.35
2023-04-06T12:02:46.548Z,7.67
2023-04-06T12:07:47.705Z,7.65
2023-04-06T12:12:48.621Z,7.85
2023-04-06T12:17:50.055Z,8.07
2023-04-06T12:22:51.070Z,7.93
2023-04-06T12:27:51.886Z,7.45
2023-04-06T12:32:52.965Z,7.93
2023-04-06T12:37:54.140Z,7.35
2023-04-06T12:42:55.068Z,7.62
2023-04-06T12:47:55.914Z,6.72
2023-04-06T12:52:56.882Z,6.97
2023-04-06T12:57:57.968Z,7.07
2023-04-06T13:02:59.052Z,7.37
2023-04-06T13:08:00.207Z,7.50
2023-04-06T13:13:01.382Z,7.53
2023-04-06T13:18:03.236Z,7.18
2023-04-06T13:23:04.130Z,7.60
2023-04-06T13:28:05.070Z,7.82
2023-04-06T13:33:06.541Z,7.97
2023-04-06T13:38:07.716Z,8.10
2023-04-06T13:43:08.681Z,8.38
2023-04-06T13:48:09.656Z,7.87
2023-04-06T13:53:10.748Z,7.97
2023-04-06T13:58:11.918Z,7.47
2023-04-06T14:03:12.812Z,8.25
2023-04-06T14:08:14.499Z,7.47
2023-04-06T14:13:15.733Z,7.25
2023-04-06T14:18:16.492Z,5.78
2023-04-06T14:23:17.291Z,5.03
2023-04-06T14:28:18.058Z,5.70
2023-04-06T14:33:18.860Z,6.32
2023-04-06T14:38:19.736Z,6.72
2023-04-06T14:43:20.563Z,6.50
2023-04-06T14:48:21.414Z,6.35
2023-04-06T14:53:23.923Z,6.85
2023-04-06T14:58:26.073Z,5.47
2023-04-06T15:03:27.883Z,5.65
2023-04-06T15:08:28.940Z,5.05
2023-04-06T15:13:29.875Z,6.30
2023-04-06T15:18:30.687Z,5.43
2023-04-06T15:23:31.662Z,6.90
2023-04-06T15:28:32.737Z,5.62
2023-04-06T15:33:33.548Z,4.82
2023-04-06T15:38:34.404Z,5.75
2023-04-06T15:43:35.190Z,6.10
2023-04-06T15:48:36.258Z,4.95
2023-04-06T15:53:37.640Z,5.35
2023-04-06T15:58:40.419Z,6.22
2023-04-06T16:03:41.794Z,5.72
2023-04-06T16:08:42.991Z,5.72
2023-04-06T16:13:47.332Z,6.22
2023-04-06T16:18:53.875Z,6.55
2023-04-06T16:23:54.689Z,6.00
2023-04-06T16:28:56.476Z,6.43
2023-04-06T16:33:57.339Z,5.85
2023-04-06T16:39:00.374Z,6.10
2023-04-06T16:44:02.398Z,7.22
2023-04-06T16:49:05.094Z,7.95
2023-04-06T16:54:06.157Z,7.43
2023-04-06T16:59:08.268Z,7.37
2023-04-06T17:04:09.198Z,7.15
2023-04-06T17:09:10.616Z,6.65
2023-04-06T17:14:11.370Z,7.12
2023-04-06T17:19:12.271Z,8.40
2023-04-06T17:24:13.422Z,7.95
2023-04-06T17:29:15.007Z,9.35
2023-04-06T17:34:15.951Z,10.70
2023-04-06T17:39:17.954Z,9.38
2023-04-06T17:44:18.803Z,10.48
2023-04-06T17:49:19.724Z,10.75
2023-04-06T17:54:20.667Z,11.57
2023-04-06T17:59:21.518Z,11.50
2023-04-06T18:04:22.369Z,11.75
2023-04-06T18:09:23.808Z,11.05
2023-04-06T18:14:24.647Z,11.20
2023-04-06T18:19:27.955Z,11.55
2023-04-06T18:29:44.599Z,10.85
2023-04-06T18:34:45.433Z,10.60
2023-04-06T18:39:46.370Z,11.25
2023-04-06T18:44:47.724Z,10.65
2023-04-06T18:49:49.522Z,12.37
2023-04-06T18:54:50.343Z,12.23
2023-04-06T18:59:51.142Z,12.37
2023-04-06T19:04:52.819Z,12.35
2023-04-06T19:09:53.940Z,12.65
2023-04-06T19:14:55.140Z,12.02
2023-04-06T19:19:57.089Z,12.75
2023-04-06T19:24:57.860Z,12.57
2023-04-06T19:29:59.607Z,13.57
2023-04-06T19:35:01.970Z,13.35
2023-04-06T19:40:06.839Z,13.50
2023-04-06T19:45:08.207Z,13.43
2023-04-06T19:50:10.781Z,13.75
2023-04-06T19:55:11.571Z,13.10
2023-04-06T20:00:13.122Z,12.98
2023-04-06T20:05:14.153Z,14.55
2023-04-06T20:10:15.922Z,14.23
2023-04-06T20:15:18.146Z,15.20
2023-04-06T20:20:19.141Z,14.43
2023-04-06T20:25:21.133Z,14.10
2023-04-06T20:30:21.996Z,13.90
2023-04-06T20:35:22.781Z,14.10
2023-04-06T20:40:23.706Z,14.77
2023-04-06T20:45:24.975Z,15.90
2023-04-06T20:50:25.762Z,16.12
2023-04-06T20:55:27.324Z,17.08
2023-04-06T21:00:28.112Z,15.75
2023-04-06T21:05:29.054Z,15.68
2023-04-06T21:10:29.936Z,15.65
2023-04-06T21:15:31.059Z,16.20
2023-04-06T21:20:31.970Z,16.58
2023-04-06T21:25:35.881Z,16.95
2023-04-06T21:30:37.025Z,16.20
2023-04-06T21:35:39.905Z,15.63
2023-04-06T21:40:40.944Z,15.20
2023-04-06T21:45:48.384Z,16.27
2023-04-06T21:50:50.019Z,17.25
2023-04-06T21:55:50.819Z,16.55
2023-04-06T22:00:51.601Z,18.23
2023-04-06T22:05:52.991Z,17.58
2023-04-06T22:10:53.850Z,19.02
2023-04-06T22:15:54.877Z,17.55
2023-04-06T22:20:56.448Z,18.05
2023-04-06T22:25:57.392Z,18.92
2023-04-06T22:30:58.256Z,20.42
2023-04-06T22:35:59.115Z,19.48
2023-04-06T22:41:00.289Z,20.67
2023-04-06T22:46:01.081Z,19.27
2023-04-06T22:51:01.951Z,19.67
2023-04-06T22:56:02.820Z,18.25
2023-04-06T23:01:03.815Z,18.17
2023-04-06T23:06:05.303Z,18.77
2023-04-06T23:11:06.157Z,18.30
2023-04-06T23:16:08.557Z,18.05
2023-04-06T23:21:09.945Z,16.80
2023-04-06T23:26:10.757Z,17.33
2023-04-06T23:31:11.564Z,16.98
2023-04-06T23:36:12.338Z,17.48
2023-04-06T23:41:15.130Z,15.70
2023-04-06T23:46:16.464Z,18.05
2023-04-06T23:51:17.278Z,18.42
2023-04-06T23:56:18.034Z,18.05
